Meteo Giornale » Osservazioni meteo Italia » S Maria Di Leuca

ore: 15:55 - Osservazioni Meteo S Maria Di Leuca
Lat. 39° 49' N Lon. 18° 21' E Alt. 104 metri s.l.m.

sereno Europe/Rome

23 °C

Sereno

Temp. 24 Ore

17 °C

25 °C

Est/Nord-Est

25.9 Km/h

Dew point 7 °C

Umidità 35 %

Visibilità  10 Km

Il sole sorge alle ore 05:20

Il sole tramonta alle ore 20:07

Data e Ora Cielo e Fenomeni T °C DP °C Um. % Pres. hPa Vis. km Vento km/h
Oggi h: 15:55 sereno Sereno 23 7 35 1016 10 E/NE 25.9
Oggi h: 14:55 sereno Sereno 24 8 35 1016 10 NE 25.9
Oggi h: 13:55 sereno Sereno 23 7 35 1015 10 E/NE 31.5
Oggi h: 12:55 sereno Sereno 23 10 43 1015 10 NE 33.3
Oggi h: 11:55 sereno Sereno 23 8 38 1015 10 NE 29.6
Oggi h: 10:55 sereno Sereno 23 8 38 1015 10 NE 25.9
Oggi h: 09:55 sereno Sereno 22 10 46 1015 10 N/NE 22.2
Oggi h: 08:55 sereno Sereno 21 13 60 1015 10 N/NE 24
Oggi h: 07:55 sereno Sereno 20 14 68 1015 10 N 22.2
Oggi h: 06:55 sereno Sereno 18 13 72 1015 10 N/NE 24
Oggi h: 05:55 sereno Sereno 17 14 82 1015 10 N/NE 24
Oggi h: 04:55 sereno Sereno 17 14 82 1014 10 N 16.7
Oggi h: 03:55 sereno Sereno 17 14 82 1014 10 N 18.5
Oggi h: 02:55 sereno Sereno 17 15 88 1014 10 N 20.3
Oggi h: 01:55 sereno Sereno 18 14 77 1015 10 N 22.2
Oggi h: 00:55 sereno Sereno 19 13 68 1015 10 N 24
Ieri h: 23:55 sereno Sereno 19 12 63 1015 10 N 25.9
Ieri h: 21:55 sereno Sereno 20 8 45 1015 10 N 24
Ieri h: 20:55 sereno Sereno 20 7 42 1015 10 N 20.3
Ieri h: 19:55 sereno Sereno 21 7 40 1014 10 N 24
Ieri h: 18:55 sereno Sereno 23 7 35 1013 10 N/NO 18.5
Ieri h: 17:55 sereno Sereno 25 7 31 1013 10 N/NO 20.3
Ieri h: 16:55 poco_nuvoloso Poco Nuvoloso 25 7 31 1013 10 NO 18.5